createdAt,value
2022-12-12T00:03:15.777Z,1.95
2022-12-12T00:06:04.941Z,1.67
2022-12-12T00:08:51.358Z,2.22
2022-12-12T00:11:36.700Z,2.97
2022-12-12T00:14:22.177Z,2.38
2022-12-12T00:17:07.639Z,1.90
2022-12-12T00:19:53.258Z,1.90
2022-12-12T00:22:38.727Z,2.90
2022-12-12T00:25:24.178Z,0.90
2022-12-12T00:28:09.635Z,3.95
2022-12-12T00:31:01.648Z,0.95
2022-12-12T00:33:48.951Z,3.13
2022-12-12T00:36:40.386Z,1.52
2022-12-12T00:39:25.741Z,2.88
2022-12-12T00:42:11.238Z,1.63
2022-12-12T00:44:56.581Z,1.13
2022-12-12T00:47:41.992Z,1.85
2022-12-12T00:50:27.450Z,2.78
2022-12-12T00:53:13.614Z,2.30
2022-12-12T00:55:59.636Z,1.90
2022-12-12T00:58:45.385Z,1.95
2022-12-12T01:01:32.801Z,1.27
2022-12-12T01:04:18.361Z,1.83
2022-12-12T01:07:03.761Z,2.95
2022-12-12T01:09:49.402Z,1.90
2022-12-12T01:12:34.925Z,2.55
2022-12-12T01:15:20.787Z,2.75
2022-12-12T01:18:06.116Z,1.60
2022-12-12T01:20:52.002Z,1.83
2022-12-12T01:23:37.935Z,2.25
2022-12-12T01:26:24.987Z,1.55
2022-12-12T01:31:58.568Z,4.82
2022-12-12T01:34:43.648Z,4.10
2022-12-12T01:37:29.330Z,2.30
2022-12-12T01:40:22.385Z,1.95
2022-12-12T01:43:13.753Z,3.53
2022-12-12T01:46:02.833Z,2.75
2022-12-12T01:49:28.287Z,0.95
2022-12-12T01:52:17.786Z,1.48
2022-12-12T01:55:05.788Z,1.48
2022-12-12T01:57:54.269Z,1.70
2022-12-12T02:00:42.769Z,1.20
2022-12-12T02:03:28.613Z,2.85
2022-12-12T02:06:19.813Z,3.25
2022-12-12T02:09:12.067Z,2.75
2022-12-12T02:11:58.371Z,1.27
2022-12-12T02:14:49.545Z,1.27
2022-12-12T02:17:55.382Z,2.80
2022-12-12T02:21:11.146Z,2.17
2022-12-12T02:24:11.659Z,4.55
2022-12-12T02:27:06.056Z,3.30
2022-12-12T02:30:05.684Z,1.17
2022-12-12T02:33:06.669Z,1.55
2022-12-12T02:36:10.642Z,2.78
2022-12-12T02:39:14.795Z,2.58
2022-12-12T02:42:05.830Z,1.92
2022-12-12T02:45:11.411Z,1.00
2022-12-12T02:48:13.272Z,1.92
2022-12-12T02:51:04.411Z,3.25
2022-12-12T02:53:53.559Z,3.17
2022-12-12T02:56:47.988Z,1.98
2022-12-12T02:59:41.302Z,3.00
2022-12-12T03:02:45.575Z,1.83
2022-12-12T03:05:56.545Z,2.03
2022-12-12T03:09:21.931Z,1.10
2022-12-12T03:12:18.121Z,2.45
2022-12-12T03:15:28.011Z,2.00
2022-12-12T03:18:33.978Z,3.40
2022-12-12T03:21:52.248Z,2.13
2022-12-12T03:24:56.292Z,1.20
2022-12-12T03:27:56.003Z,1.70
2022-12-12T03:30:55.414Z,3.75
2022-12-12T03:33:48.905Z,3.00
2022-12-12T03:36:43.791Z,2.22
2022-12-12T03:39:40.847Z,1.85
2022-12-12T03:42:35.115Z,1.95
2022-12-12T03:45:42.193Z,2.38
2022-12-12T03:48:31.582Z,3.28
2022-12-12T03:51:29.186Z,2.17
2022-12-12T03:54:29.553Z,3.13
2022-12-12T03:57:22.089Z,1.98
2022-12-12T04:00:13.890Z,2.05
2022-12-12T04:03:19.799Z,2.03
2022-12-12T04:06:27.985Z,2.58
2022-12-12T04:09:36.685Z,3.83
2022-12-12T04:12:59.072Z,1.55
2022-12-12T04:16:04.258Z,2.03
2022-12-12T04:19:01.005Z,1.60
2022-12-12T04:22:18.082Z,1.45
2022-12-12T04:25:15.892Z,4.50
2022-12-12T04:28:07.729Z,1.93
2022-12-12T04:30:54.220Z,1.55
2022-12-12T04:33:49.407Z,1.83
2022-12-12T04:36:36.047Z,1.65
2022-12-12T04:39:23.269Z,3.80
2022-12-12T04:42:17.128Z,2.22
2022-12-12T04:45:12.424Z,2.90
2022-12-12T04:47:59.578Z,3.60
2022-12-12T04:50:52.927Z,5.40
2022-12-12T04:53:46.873Z,2.70
2022-12-12T04:56:38.353Z,2.10
2022-12-12T04:59:27.824Z,3.85
2022-12-12T05:02:58.113Z,2.85
2022-12-12T05:05:56.902Z,1.58
2022-12-12T05:08:45.530Z,2.45
2022-12-12T05:11:31.556Z,1.90
2022-12-12T05:14:18.456Z,2.30
2022-12-12T05:17:09.756Z,3.13
2022-12-12T05:19:58.936Z,2.45
2022-12-12T05:22:44.607Z,0.88
2022-12-12T05:25:30.387Z,4.13
2022-12-12T05:28:18.571Z,1.90
2022-12-12T05:31:04.049Z,2.03
2022-12-12T05:33:49.966Z,1.60
2022-12-12T05:36:35.414Z,2.17
2022-12-12T05:39:20.719Z,1.73
2022-12-12T05:42:06.502Z,3.08
2022-12-12T05:44:52.312Z,1.42
2022-12-12T05:47:38.002Z,1.85
2022-12-12T05:50:27.388Z,2.25
2022-12-12T05:53:13.231Z,2.63
2022-12-12T05:56:00.518Z,2.83
2022-12-12T06:01:33.024Z,1.90
2022-12-12T06:04:18.466Z,2.40
2022-12-12T06:07:04.040Z,2.28
2022-12-12T06:09:49.519Z,1.85
2022-12-12T06:12:35.021Z,1.98
2022-12-12T06:15:23.474Z,3.15
2022-12-12T06:18:12.380Z,4.28
2022-12-12T06:21:10.207Z,3.10
2022-12-12T06:23:55.891Z,1.02
2022-12-12T06:26:41.659Z,4.53
2022-12-12T06:29:27.249Z,2.35
2022-12-12T06:32:12.618Z,1.10
2022-12-12T06:34:58.017Z,2.03
2022-12-12T06:37:43.523Z,0.70
2022-12-12T06:40:29.175Z,2.75
2022-12-12T06:43:14.486Z,2.75
2022-12-12T06:46:05.432Z,1.08
2022-12-12T06:48:55.682Z,1.83
2022-12-12T06:51:45.520Z,1.98
2022-12-12T06:54:30.973Z,2.33
2022-12-12T06:57:16.415Z,2.03
2022-12-12T07:00:02.159Z,2.35
2022-12-12T07:02:47.411Z,0.57
2022-12-12T07:05:33.517Z,3.45
2022-12-12T07:08:19.177Z,4.97
2022-12-12T07:11:13.533Z,2.88
2022-12-12T07:13:59.810Z,2.15
2022-12-12T07:16:45.147Z,3.00
2022-12-12T07:19:30.441Z,1.55
2022-12-12T07:22:15.873Z,1.65
2022-12-12T07:25:01.642Z,1.73
2022-12-12T07:27:47.062Z,2.22
2022-12-12T07:30:33.570Z,2.33
2022-12-12T07:33:18.970Z,2.23
2022-12-12T07:36:05.211Z,2.65
2022-12-12T07:38:50.647Z,3.38
2022-12-12T07:41:35.771Z,3.90
2022-12-12T07:44:21.097Z,2.30
2022-12-12T07:47:06.802Z,1.88
2022-12-12T07:49:52.183Z,2.30
2022-12-12T07:52:37.882Z,1.67
2022-12-12T07:55:22.981Z,2.17
2022-12-12T07:58:08.479Z,2.90
2022-12-12T08:00:53.779Z,4.10
2022-12-12T08:03:39.091Z,2.17
2022-12-12T08:06:25.237Z,1.60
2022-12-12T08:09:10.578Z,1.10
2022-12-12T08:11:58.452Z,3.38
2022-12-12T08:14:44.479Z,3.33
2022-12-12T08:17:29.989Z,2.55
2022-12-12T08:20:17.138Z,3.10
2022-12-12T08:23:02.160Z,2.60
2022-12-12T08:25:47.632Z,1.73
2022-12-12T08:28:33.208Z,2.38
2022-12-12T08:31:20.621Z,1.48
2022-12-12T08:34:06.353Z,0.82
2022-12-12T08:36:52.626Z,1.42
2022-12-12T08:39:38.841Z,1.35
2022-12-12T08:42:24.318Z,1.60
2022-12-12T08:45:09.943Z,1.42
2022-12-12T08:47:55.689Z,2.80
2022-12-12T08:50:41.516Z,1.38
2022-12-12T08:53:27.902Z,1.23
2022-12-12T08:56:13.938Z,1.25
2022-12-12T08:58:59.304Z,0.47
2022-12-12T09:01:44.862Z,1.13
2022-12-12T09:04:30.376Z,1.45
2022-12-12T09:07:15.620Z,2.15
2022-12-12T09:10:01.160Z,2.88
2022-12-12T09:12:47.950Z,0.90
2022-12-12T09:15:34.879Z,1.48
2022-12-12T09:18:22.097Z,1.35
2022-12-12T09:21:07.915Z,1.13
2022-12-12T09:23:55.425Z,2.72
2022-12-12T09:26:41.031Z,2.13
2022-12-12T09:29:26.348Z,0.90
2022-12-12T09:32:11.824Z,1.15
2022-12-12T09:34:57.276Z,1.23
2022-12-12T09:37:42.788Z,1.60
2022-12-12T09:40:43.830Z,1.30
2022-12-12T09:43:33.623Z,1.58
2022-12-12T09:46:44.305Z,1.42
2022-12-12T09:49:43.532Z,0.98
2022-12-12T09:52:33.340Z,1.95
2022-12-12T09:55:35.916Z,1.40
2022-12-12T09:58:26.891Z,1.67
2022-12-12T10:01:26.088Z,0.55
2022-12-12T10:04:31.322Z,2.10
2022-12-12T10:07:27.154Z,0.75
2022-12-12T10:10:31.399Z,1.42
2022-12-12T10:13:22.027Z,2.00
2022-12-12T10:16:14.939Z,1.75
2022-12-12T10:19:25.697Z,0.70
2022-12-12T10:22:44.289Z,0.73
2022-12-12T10:26:15.628Z,1.10
2022-12-12T10:29:30.205Z,2.22
2022-12-12T10:32:24.398Z,1.42
2022-12-12T10:35:22.576Z,0.70
2022-12-12T10:39:08.703Z,1.73
2022-12-12T10:42:22.717Z,1.95
2022-12-12T10:45:17.563Z,1.27
2022-12-12T10:48:03.416Z,1.77
2022-12-12T10:50:52.500Z,2.20
2022-12-12T10:53:40.482Z,1.90
2022-12-12T10:56:29.336Z,2.53
2022-12-12T10:59:22.086Z,0.85
2022-12-12T11:02:22.825Z,1.15
2022-12-12T11:05:10.737Z,0.50
2022-12-12T11:08:21.576Z,1.52
2022-12-12T11:11:07.241Z,1.95
2022-12-12T11:14:03.231Z,1.58
2022-12-12T11:16:49.042Z,1.15
2022-12-12T11:19:39.383Z,1.00
2022-12-12T11:22:26.341Z,1.85
2022-12-12T11:25:28.560Z,1.00
2022-12-12T11:28:21.723Z,1.48
2022-12-12T11:31:14.337Z,1.13
2022-12-12T11:34:04.244Z,1.33
2022-12-12T11:36:49.367Z,0.88
2022-12-12T11:39:42.778Z,1.02
2022-12-12T11:42:34.001Z,1.10
2022-12-12T11:45:24.961Z,1.05
2022-12-12T11:48:31.349Z,0.77
2022-12-12T11:51:32.382Z,1.00
2022-12-12T11:54:34.477Z,0.95
2022-12-12T11:57:26.036Z,0.60
2022-12-12T12:00:15.598Z,0.95
2022-12-12T12:03:12.990Z,0.93
2022-12-12T12:06:13.701Z,1.48
2022-12-12T12:09:26.636Z,0.50
2022-12-12T12:12:25.163Z,1.42
2022-12-12T12:15:40.249Z,0.57
2022-12-12T12:18:47.844Z,1.00
2022-12-12T12:22:00.330Z,0.70
2022-12-12T12:25:28.628Z,0.40
2022-12-12T12:28:47.926Z,0.70
2022-12-12T12:32:01.391Z,0.68
2022-12-12T12:35:08.699Z,1.27
2022-12-12T12:38:15.565Z,0.50
2022-12-12T12:41:17.026Z,1.23
2022-12-12T12:44:11.635Z,0.80
2022-12-12T12:47:11.253Z,0.63
2022-12-12T12:50:03.447Z,1.67
2022-12-12T12:52:57.034Z,0.73
2022-12-12T12:55:49.722Z,0.75
2022-12-12T12:58:44.033Z,1.10
2022-12-12T13:01:36.367Z,1.45
2022-12-12T13:04:25.447Z,0.93
2022-12-12T13:07:24.291Z,1.20
2022-12-12T13:10:27.288Z,1.58
2022-12-12T13:13:24.665Z,0.65
2022-12-12T13:16:18.156Z,1.25
2022-12-12T13:19:13.919Z,0.70
2022-12-12T13:22:14.147Z,0.82
2022-12-12T13:25:14.282Z,1.65
2022-12-12T13:28:04.937Z,0.73
2022-12-12T13:31:04.708Z,1.52
2022-12-12T13:34:07.300Z,0.93
2022-12-12T13:36:55.771Z,0.40
2022-12-12T13:39:41.382Z,0.55
2022-12-12T13:42:26.790Z,0.60
2022-12-12T13:45:42.972Z,0.90
2022-12-12T13:48:28.352Z,0.98
2022-12-12T13:51:30.447Z,0.68
2022-12-12T13:54:18.525Z,1.00
2022-12-12T13:57:22.449Z,0.80
2022-12-12T14:00:16.499Z,0.70
2022-12-12T14:03:11.341Z,0.98
2022-12-12T14:06:10.198Z,0.85
2022-12-12T14:08:59.431Z,1.13
2022-12-12T14:11:45.367Z,0.93
2022-12-12T14:14:32.959Z,1.25
2022-12-12T14:17:23.937Z,0.95
2022-12-12T14:20:25.345Z,0.60
2022-12-12T14:23:13.971Z,0.95
2022-12-12T14:26:02.392Z,0.95
2022-12-12T14:28:47.757Z,1.42
2022-12-12T14:31:41.289Z,0.63
2022-12-12T14:35:11.520Z,1.80
2022-12-12T14:38:34.171Z,0.93
2022-12-12T14:41:25.987Z,1.42
2022-12-12T14:44:37.600Z,0.95
2022-12-12T14:47:23.894Z,1.13
2022-12-12T14:50:11.125Z,1.30
2022-12-12T14:52:58.062Z,1.20
2022-12-12T14:55:57.239Z,0.82
2022-12-12T14:58:47.175Z,0.77
2022-12-12T15:01:34.353Z,0.57
2022-12-12T15:04:21.573Z,1.77
2022-12-12T15:07:23.272Z,1.63
2022-12-12T15:10:27.524Z,1.60
2022-12-12T15:13:21.225Z,1.35
2022-12-12T15:16:07.192Z,2.22
2022-12-12T15:18:54.605Z,4.47
2022-12-12T15:24:29.590Z,1.55
2022-12-12T15:27:46.933Z,1.75
2022-12-12T15:30:43.524Z,2.10
2022-12-12T15:33:29.239Z,1.05
2022-12-12T15:36:17.338Z,0.60
2022-12-12T15:39:11.473Z,1.92
2022-12-12T15:41:57.100Z,1.65
2022-12-12T15:44:44.772Z,1.48
2022-12-12T15:47:32.040Z,9.70
2022-12-12T15:50:20.931Z,6.20
2022-12-12T15:53:29.287Z,8.10
2022-12-12T15:56:35.160Z,1.67
2022-12-12T15:59:30.071Z,1.70
2022-12-12T16:02:24.939Z,3.40
2022-12-12T16:05:30.721Z,0.75
2022-12-12T16:08:32.279Z,1.55
2022-12-12T16:11:45.372Z,1.50
2022-12-12T16:14:42.504Z,1.55
2022-12-12T16:17:29.241Z,2.75
2022-12-12T16:20:14.877Z,2.13
2022-12-12T16:23:30.714Z,1.23
2022-12-12T16:26:16.195Z,1.67
2022-12-12T16:29:02.811Z,0.93
2022-12-12T16:31:48.764Z,1.52
2022-12-12T16:34:34.392Z,0.75
2022-12-12T16:37:20.213Z,1.40
2022-12-12T16:40:06.558Z,2.08
2022-12-12T16:43:07.809Z,1.13
2022-12-12T16:46:00.782Z,1.10
2022-12-12T16:48:46.193Z,0.93
2022-12-12T16:51:34.558Z,1.92
2022-12-12T16:54:20.225Z,1.63
2022-12-12T16:57:08.890Z,1.88
2022-12-12T16:59:54.368Z,1.05
2022-12-12T17:02:40.334Z,1.13
2022-12-12T17:05:27.278Z,1.52
2022-12-12T17:08:15.399Z,0.90
2022-12-12T17:11:09.569Z,2.05
2022-12-12T17:13:56.813Z,2.92
2022-12-12T17:16:45.256Z,13.80
2022-12-12T17:19:31.670Z,5.65
2022-12-12T17:22:17.123Z,2.70
2022-12-12T17:25:02.508Z,1.48
2022-12-12T17:27:47.827Z,1.95
2022-12-12T17:30:34.133Z,1.48
2022-12-12T17:33:19.812Z,0.52
2022-12-12T17:36:06.534Z,1.33
2022-12-12T17:38:52.295Z,1.52
2022-12-12T17:41:37.653Z,1.63
2022-12-12T17:44:23.826Z,1.55
2022-12-12T17:47:09.538Z,1.57
2022-12-12T17:49:54.929Z,1.42
2022-12-12T17:52:40.438Z,1.70
2022-12-12T17:55:54.170Z,2.08
2022-12-12T17:58:39.555Z,1.67
2022-12-12T18:01:31.766Z,4.47
2022-12-12T18:04:17.541Z,6.40
2022-12-12T18:07:02.920Z,7.90
2022-12-12T18:09:51.573Z,7.10
2022-12-12T18:12:37.196Z,8.18
2022-12-12T18:15:22.768Z,7.90
2022-12-12T18:18:08.196Z,9.20
2022-12-12T18:20:53.700Z,2.05
2022-12-12T18:23:40.257Z,26.35
2022-12-12T18:26:25.860Z,6.40
2022-12-12T18:29:13.268Z,6.97
2022-12-12T18:31:59.227Z,4.13
2022-12-12T18:34:44.659Z,1.08
2022-12-12T18:37:30.135Z,2.40
2022-12-12T18:40:16.259Z,8.80
2022-12-12T18:43:01.699Z,9.93
2022-12-12T18:45:47.336Z,11.85
2022-12-12T18:48:35.338Z,8.82
2022-12-12T18:51:24.179Z,4.72
2022-12-12T18:54:14.990Z,1.77
2022-12-12T18:57:01.487Z,3.00
2022-12-12T18:59:47.129Z,3.85
2022-12-12T19:02:37.381Z,7.82
2022-12-12T19:05:23.138Z,8.52
2022-12-12T19:08:09.808Z,7.22
2022-12-12T19:10:55.527Z,6.50
2022-12-12T19:13:43.039Z,4.32
2022-12-12T19:16:29.195Z,4.88
2022-12-12T19:19:15.411Z,3.88
2022-12-12T19:22:08.874Z,4.90
2022-12-12T19:25:04.675Z,4.53
2022-12-12T19:27:50.201Z,14.85
2022-12-12T19:30:39.502Z,6.07
2022-12-12T19:33:24.969Z,2.75
2022-12-12T19:36:17.945Z,1.95
2022-12-12T19:39:06.163Z,1.83
2022-12-12T19:41:51.834Z,23.75
2022-12-12T19:44:43.035Z,15.95
2022-12-12T19:47:29.095Z,37.13
2022-12-12T19:50:14.857Z,22.80
2022-12-12T19:53:00.510Z,15.65
2022-12-12T19:55:48.104Z,16.90
2022-12-12T19:58:38.391Z,11.70
2022-12-12T20:01:28.550Z,29.02
2022-12-12T20:04:17.717Z,24.00
2022-12-12T20:07:03.330Z,15.05
2022-12-12T20:09:49.033Z,10.70
2022-12-12T20:12:34.430Z,8.40
2022-12-12T20:15:19.998Z,11.05
2022-12-12T20:18:05.490Z,4.60
2022-12-12T20:20:58.978Z,7.18
2022-12-12T20:23:47.179Z,5.00
2022-12-12T20:26:32.744Z,4.78
2022-12-12T20:29:18.690Z,11.85
2022-12-12T20:32:04.290Z,5.25
2022-12-12T20:34:49.936Z,6.25
2022-12-12T20:37:35.361Z,2.03
2022-12-12T20:40:20.740Z,4.25
2022-12-12T20:43:06.454Z,2.33
2022-12-12T20:45:52.237Z,2.50
2022-12-12T20:48:38.373Z,3.78
2022-12-12T20:51:54.000Z,4.30
2022-12-12T20:54:35.700Z,4.90
2022-12-12T20:57:21.012Z,7.13
2022-12-12T21:00:07.401Z,13.52
2022-12-12T21:02:53.143Z,5.87
2022-12-12T21:05:38.556Z,10.30
2022-12-12T21:08:23.692Z,6.82
2022-12-12T21:11:09.689Z,4.72
2022-12-12T21:13:55.259Z,5.75
2022-12-12T21:16:41.139Z,5.32
2022-12-12T21:19:26.508Z,3.10
2022-12-12T21:22:12.052Z,3.13
2022-12-12T21:24:57.812Z,4.15
2022-12-12T21:27:43.342Z,2.55
2022-12-12T21:30:28.713Z,4.43
2022-12-12T21:33:16.810Z,3.78
2022-12-12T21:36:07.107Z,2.95
2022-12-12T21:38:56.613Z,1.67
2022-12-12T21:41:43.935Z,2.28
2022-12-12T21:47:14.791Z,1.50
2022-12-12T21:50:00.313Z,3.00
2022-12-12T21:53:05.691Z,2.08
2022-12-12T21:55:51.432Z,1.95
2022-12-12T21:58:38.656Z,3.33
2022-12-12T22:01:24.412Z,2.28
2022-12-12T22:04:12.464Z,2.53
2022-12-12T22:06:58.621Z,4.60
2022-12-12T22:09:43.795Z,4.40
2022-12-12T22:12:43.544Z,2.13
2022-12-12T22:15:43.066Z,1.95
2022-12-12T22:18:28.928Z,3.13
2022-12-12T22:21:20.817Z,2.45
2022-12-12T22:24:06.870Z,1.73
2022-12-12T22:26:52.315Z,2.67
2022-12-12T22:29:38.048Z,2.22
2022-12-12T22:32:23.385Z,1.77
2022-12-12T22:35:08.980Z,3.30
2022-12-12T22:37:54.479Z,1.98
2022-12-12T22:40:39.716Z,3.45
2022-12-12T22:43:25.483Z,4.32
2022-12-12T22:46:11.067Z,3.28
2022-12-12T22:48:59.355Z,2.30
2022-12-12T22:51:45.183Z,1.60
2022-12-12T22:54:30.496Z,2.05
2022-12-12T22:57:16.150Z,2.90
2022-12-12T23:00:01.557Z,4.88
2022-12-12T23:02:46.909Z,3.10
2022-12-12T23:05:32.591Z,1.50
2022-12-12T23:08:17.840Z,2.53
2022-12-12T23:11:13.065Z,2.67
2022-12-12T23:14:02.730Z,3.65
2022-12-12T23:16:48.551Z,2.40
2022-12-12T23:19:35.428Z,2.33
2022-12-12T23:25:07.308Z,2.75
2022-12-12T23:27:52.678Z,0.90
2022-12-12T23:30:38.611Z,0.95
2022-12-12T23:33:24.554Z,2.20
2022-12-12T23:36:11.793Z,2.78
2022-12-12T23:38:59.386Z,1.75
2022-12-12T23:41:45.046Z,1.98
2022-12-12T23:44:30.790Z,1.38
2022-12-12T23:47:16.189Z,1.60
2022-12-12T23:50:01.767Z,2.80
2022-12-12T23:52:47.095Z,3.65
2022-12-12T23:55:32.728Z,2.78
2022-12-12T23:58:18.387Z,4.63
